New Champion — V7GG2 — position and weather

sailwx.info

Track history (hours):
 
Tides and Currents Weather Stations Pressure Air Temp Water Temp Dewpoint Dewpoint Depression Visibility Wind Speed Wind Dir Waves Ship Positions

New Champion

Last reported at 2017-Aug-23 06:00 UTC. Time now 2017-Aug-23 06:10 UTC.
Position N 31°00' W 015°44'.

Length 228 m; draft 11.4 m.

Type: Ship (hazmat cat A). MMSI: 537985031.

Date/timePositionNaut miles runAvg speedWind from/ knotsBaromVisibWave heightAir tempDewpointWater temp
2017-Aug-23 06:00N 31°00' W 015°44'612.5
2017-Aug-23 05:30N 30°57' W 015°50'612.4
2017-Aug-23 05:00N 30°54' W 015°56'612.4
2017-Aug-23 04:30N 30°51' W 016°02'612.6
2017-Aug-23 04:00N 30°47' W 016°08'612.5
2017-Aug-23 03:30N 30°44' W 016°15'612.7
2017-Aug-23 03:00N 30°41' W 016°21'612.8
2017-Aug-23 02:30N 30°38' W 016°27'612.5
2017-Aug-23 02:00N 30°34' W 016°34'612.5
2017-Aug-23 01:30N 30°31' W 016°40'612.6
2017-Aug-23 01:00N 30°28' W 016°46'612.5
2017-Aug-23 00:30N 30°25' W 016°52'612.4
2017-Aug-23 00:00N 30°22' W 016°59'612.5
2017-Aug-22 23:30N 30°18' W 017°05'612.7
2017-Aug-22 23:00N 30°15' W 017°11'712.6
2017-Aug-22 22:26N 30°11' W 017°18'512.5
2017-Aug-22 22:00N 30°09' W 017°24'612.5
2017-Aug-22 21:30N 30°06' W 017°30'612.6
2017-Aug-22 21:00N 30°02' W 017°36'611.9
2017-Aug-22 20:30N 29°59' W 017°42'5 9.0
2017-Aug-22 20:00N 29°57' W 017°46'4 9.1
2017-Aug-22 19:30N 29°55' W 017°51'5 9.2
2017-Aug-22 19:00N 29°52' W 017°56'55 5.3
2017-Aug-22 08:32N 29°23' W 018°49'2 1.1
2017-Aug-22 06:55N 29°24' W 018°48'0 1.0
2017-Aug-22 06:30N 29°24' W 018°47'1 1.0
2017-Aug-22 05:57N 29°24' W 018°47'1 1.0
2017-Aug-22 05:20N 29°24' W 018°46'0 1.0
2017-Aug-22 05:00N 29°24' W 018°46'1 1.1
2017-Aug-22 04:27N 29°24' W 018°45'1 1.0
2017-Aug-22 03:53N 29°25' W 018°44'0 1.0
2017-Aug-22 03:30N 29°25' W 018°44'1 1.1
2017-Aug-22 02:59N 29°25' W 018°43'1 1.1
2017-Aug-22 02:30N 29°25' W 018°43'1 1.0
2017-Aug-22 01:56N 29°25' W 018°42'0 1.0
2017-Aug-22 01:30N 29°25' W 018°42'1 1.1
2017-Aug-22 01:00N 29°25' W 018°41'1 1.2
2017-Aug-22 00:30N 29°25' W 018°40'1 1.1
2017-Aug-22 00:00N 29°25' W 018°40'1 1.2
2017-Aug-21 23:30N 29°25' W 018°39'1 1.3
2017-Aug-21 23:00N 29°25' W 018°38'1 1.4
2017-Aug-21 22:30N 29°25' W 018°37'1 1.4
2017-Aug-21 22:00N 29°25' W 018°37'1 1.3
2017-Aug-21 21:30N 29°25' W 018°36'12 1.3
2017-Aug-21 12:40N 29°26' W 018°22'0 1.1
2017-Aug-21 12:23N 29°26' W 018°22'3 1.1
2017-Aug-21 09:41N 29°26' W 018°19'1 1.0
2017-Aug-21 08:44N 29°26' W 018°18'1 1.0
2017-Aug-21 08:10N 29°26' W 018°17'0 1.2
2017-Aug-21 08:00N 29°26' W 018°17'1 1.1
2017-Aug-21 07:27N 29°26' W 018°16'1 1.2
2017-Aug-21 06:20N 29°26' W 018°15'0 1.3
2017-Aug-21 06:00N 29°26' W 018°14'1 1.4
2017-Aug-21 05:30N 29°26' W 018°13'1 1.6
2017-Aug-21 05:00N 29°26' W 018°12'1 1.6
2017-Aug-21 04:30N 29°26' W 018°11'1 1.6
2017-Aug-21 04:00N 29°26' W 018°11'1 1.5
2017-Aug-21 03:27N 29°26' W 018°10'1 1.6
2017-Aug-21 03:00N 29°25' W 018°09'1 1.5
2017-Aug-21 02:30N 29°25' W 018°08'1 1.6
2017-Aug-21 02:01N 29°25' W 018°07'1 1.6
2017-Aug-21 01:29N 29°25' W 018°06'1 1.5
2017-Aug-21 01:00N 29°25' W 018°05'1 1.5
2017-Aug-21 00:20N 29°25' W 018°04'1 1.5
2017-Aug-20 23:57N 29°25' W 018°04'1 1.5
2017-Aug-20 23:14N 29°25' W 018°02'0 1.3
2017-Aug-20 23:00N 29°25' W 018°02'1 1.4
2017-Aug-20 22:07N 29°25' W 018°01'1 1.4
2017-Aug-20 21:13N 29°24' W 017°59'0 1.4
2017-Aug-20 20:58N 29°24' W 017°59'2 1.7
2017-Aug-20 20:00N 29°24' W 017°57'1 1.8
2017-Aug-20 19:25N 29°24' W 017°56'1 1.9
2017-Aug-20 19:00N 29°24' W 017°55'2 1.8
2017-Aug-20 17:52N 29°24' W 017°53'1 1.7
2017-Aug-20 17:29N 29°24' W 017°52'1 1.8
2017-Aug-20 17:00N 29°24' W 017°51'4 1.6
2017-Aug-20 14:14N 29°24' W 017°46'0 1.5
2017-Aug-20 13:54N 29°25' W 017°45'1 1.3
2017-Aug-20 13:30N 29°25' W 017°45'1 1.3
2017-Aug-20 13:00N 29°25' W 017°44'1 1.4
2017-Aug-20 12:19N 29°24' W 017°43'0 1.5
2017-Aug-20 12:00N 29°24' W 017°42'1 1.6
2017-Aug-20 11:28N 29°24' W 017°41'1 1.8
2017-Aug-20 10:59N 29°24' W 017°40'1 1.9
2017-Aug-20 10:28N 29°23' W 017°39'1 1.9
2017-Aug-20 09:59N 29°23' W 017°38'1 1.9
2017-Aug-20 09:27N 29°22' W 017°37'1 1.8
2017-Aug-20 09:00N 29°22' W 017°36'1 2.0
2017-Aug-20 08:30N 29°22' W 017°35'1 2.1
2017-Aug-20 07:59N 29°22' W 017°34'1 2.2
2017-Aug-20 07:30N 29°21' W 017°33'1 2.2
2017-Aug-20 07:00N 29°21' W 017°32'1 2.1
2017-Aug-20 06:30N 29°21' W 017°31'1 2.2
2017-Aug-20 06:01N 29°21' W 017°29'1 2.0
2017-Aug-20 05:25N 29°20' W 017°28'1 2.0
2017-Aug-20 04:51N 29°20' W 017°27'1 1.7
2017-Aug-20 04:28N 29°20' W 017°26'1 1.8
2017-Aug-20 04:00N 29°20' W 017°25'2 1.7
2017-Aug-20 02:53N 29°20' W 017°23'1 1.7
2017-Aug-20 02:00N 29°20' W 017°21'3 1.7
2017-Aug-20 00:08N 29°20' W 017°18'0 1.7
2017-Aug-19 23:53N 29°20' W 017°17'1 1.7
2017-Aug-19 23:28N 29°20' W 017°16'1 1.8
2017-Aug-19 22:38N 29°20' W 017°15'0 1.8
2017-Aug-19 22:25N 29°20' W 017°14'1 1.9
2017-Aug-19 21:57N 29°20' W 017°13'3 1.8
2017-Aug-19 20:11N 29°20' W 017°10'0 1.9
2017-Aug-19 20:00N 29°20' W 017°09'1 1.8
2017-Aug-19 19:30N 29°20' W 017°08'1 1.8
2017-Aug-19 18:54N 29°20' W 017°07'1 1.9
2017-Aug-19 18:30N 29°20' W 017°06'1 1.9
2017-Aug-19 17:59N 29°20' W 017°05'1 1.9
2017-Aug-19 17:15N 29°19' W 017°03'1 2.3
2017-Aug-19 17:00N 29°19' W 017°03'1 2.2
2017-Aug-19 16:29N 29°19' W 017°01'1 2.3
2017-Aug-19 16:00N 29°19' W 017°00'1 2.3
2017-Aug-19 15:30N 29°19' W 016°59'1 2.3
2017-Aug-19 15:00N 29°19' W 016°57'3 2.3
2017-Aug-19 13:37N 29°19' W 016°54'1 7.5
2017-Aug-19 13:29N 29°18' W 016°54'4 8.5
2017-Aug-19 12:59N 29°14' W 016°56'4 8.6
2017-Aug-19 12:30N 29°10' W 016°58'11 7.1
2017-Aug-19 11:01N 29°00' W 017°02'1 1.7
2017-Aug-19 10:09N 29°01' W 017°00'0 1.7
2017-Aug-19 10:00N 29°01' W 017°00'6 1.6
2017-Aug-19 06:25N 29°03' W 016°54'1 2.0
2017-Aug-19 06:00N 29°03' W 016°53'1 1.8
2017-Aug-19 05:30N 29°04' W 016°52'1 1.6
2017-Aug-19 05:00N 29°04' W 016°51'1 1.6
2017-Aug-19 04:28N 29°04' W 016°50'1 1.6
2017-Aug-19 04:00N 29°04' W 016°50'1 1.8
2017-Aug-19 03:30N 29°05' W 016°49'1 1.7
2017-Aug-19 03:00N 29°05' W 016°48'1 1.7
2017-Aug-19 02:30N 29°05' W 016°47'1 1.7
2017-Aug-19 02:00N 29°05' W 016°46'1 1.8
2017-Aug-19 01:31N 29°06' W 016°45'1 2.0
2017-Aug-19 01:00N 29°06' W 016°44'1 2.1
2017-Aug-19 00:31N 29°06' W 016°42'1 2.1
2017-Aug-19 00:01N 29°06' W 016°41'1 2.1
2017-Aug-18 23:30N 29°06' W 016°40'1 2.1
2017-Aug-18 22:59N 29°06' W 016°39'1 2.0
2017-Aug-18 22:30N 29°07' W 016°38'1 1.8
2017-Aug-18 22:00N 29°07' W 016°37'1 2.0
2017-Aug-18 21:30N 29°07' W 016°36'1 2.0
2017-Aug-18 20:47N 29°07' W 016°34'1 2.0
2017-Aug-18 20:28N 29°07' W 016°33'1 2.0
2017-Aug-18 20:00N 29°08' W 016°32'1 2.0
2017-Aug-18 19:30N 29°08' W 016°31'1 2.0
2017-Aug-18 18:58N 29°08' W 016°30'1 2.1
2017-Aug-18 18:30N 29°08' W 016°29'1 2.2
2017-Aug-18 18:00N 29°08' W 016°28'1 2.2
2017-Aug-18 17:30N 29°09' W 016°26'1 2.2
2017-Aug-18 17:00N 29°09' W 016°25'1 2.1
2017-Aug-18 16:30N 29°09' W 016°24'1 2.1
2017-Aug-18 15:59N 29°09' W 016°23'1 2.2
2017-Aug-18 15:29N 29°09' W 016°21'1 2.3
2017-Aug-18 14:59N 29°09' W 016°20'2 2.3
2017-Aug-18 13:59N 29°09' W 016°18'1 2.3
2017-Aug-18 13:29N 29°09' W 016°16'1 2.2
2017-Aug-18 12:58N 29°10' W 016°15'1 1.6
2017-Aug-18 12:31N 29°11' W 016°15'1 1.5
2017-Aug-18 11:59N 29°11' W 016°15'1 2.7
2017-Aug-18 11:29N 29°10' W 016°15'4 8.6
2017-Aug-18 10:59N 29°06' W 016°14'4 9.3
2017-Aug-18 10:30N 29°01' W 016°14'5 9.2
2017-Aug-18 10:01N 28°57' W 016°14'4 7.7
2017-Aug-18 09:30N 28°53' W 016°13'1 1.5
2017-Aug-18 09:00N 28°53' W 016°12'1 1.5
2017-Aug-18 08:30N 28°53' W 016°12'1 1.6
2017-Aug-18 08:00N 28°53' W 016°11'1 1.6
2017-Aug-18 07:30N 28°54' W 016°10'1 1.6
2017-Aug-18 07:00N 28°54' W 016°09'1 1.7
2017-Aug-18 06:30N 28°54' W 016°08'1 1.8
2017-Aug-18 06:00N 28°54' W 016°07'1 1.9
2017-Aug-18 05:30N 28°54' W 016°06'1 1.8
2017-Aug-18 05:00N 28°54' W 016°05'1 2.0
2017-Aug-18 04:30N 28°55' W 016°04'1 1.9
2017-Aug-18 04:00N 28°55' W 016°03'1 2.0
2017-Aug-18 03:30N 28°55' W 016°02'1 1.9
2017-Aug-18 03:00N 28°55' W 016°01'1 1.9
2017-Aug-18 02:30N 28°55' W 015°60'1 1.7
2017-Aug-18 02:00N 28°55' W 015°59'1 1.6
2017-Aug-18 01:30N 28°55' W 015°58'1 1.5
2017-Aug-18 01:00N 28°56' W 015°57'1 1.5
2017-Aug-18 00:30N 28°56' W 015°56'1 1.4
2017-Aug-18 00:00N 28°56' W 015°55'1 1.4
2017-Aug-17 23:30N 28°56' W 015°54'1 1.4
2017-Aug-17 23:01N 28°56' W 015°54'1 1.5
2017-Aug-17 22:31N 28°56' W 015°53'1 1.6
2017-Aug-17 22:01N 28°56' W 015°52'1 1.5
2017-Aug-17 21:31N 28°56' W 015°51'1 1.5
2017-Aug-17 21:01N 28°56' W 015°50'1 1.6
2017-Aug-17 20:31N 28°56' W 015°49'1 1.6
2017-Aug-17 20:00N 28°56' W 015°48'1 1.7
2017-Aug-17 19:30N 28°56' W 015°48'1 1.5
2017-Aug-17 19:00N 28°57' W 015°47'1 1.4
2017-Aug-17 18:30N 28°57' W 015°46'1 1.4
2017-Aug-17 18:00N 28°57' W 015°45'1 1.3
2017-Aug-17 17:30N 28°57' W 015°44'1 1.3
2017-Aug-17 17:00N 28°57' W 015°44'1 1.4
2017-Aug-17 16:31N 28°57' W 015°43'1 1.4
2017-Aug-17 16:00N 28°57' W 015°42'1 1.5
2017-Aug-17 15:30N 28°56' W 015°41'1 1.6
2017-Aug-17 15:00N 28°56' W 015°40'1 1.6
2017-Aug-17 14:30N 28°56' W 015°39'1 1.6
2017-Aug-17 14:00N 28°56' W 015°38'1 1.7
2017-Aug-17 13:30N 28°56' W 015°37'1 1.8
2017-Aug-17 12:59N 28°56' W 015°36'1 1.8
2017-Aug-17 12:30N 28°56' W 015°35'1 1.8
2017-Aug-17 12:00N 28°56' W 015°34'1 1.8
2017-Aug-17 11:31N 28°55' W 015°33'1 1.8
2017-Aug-17 11:00N 28°55' W 015°32'1 1.7
2017-Aug-17 10:30N 28°55' W 015°31'1 1.7
2017-Aug-17 10:00N 28°55' W 015°30'1 1.8
2017-Aug-17 09:30N 28°55' W 015°29'1 1.9
2017-Aug-17 09:00N 28°55' W 015°28'1 2.0
2017-Aug-17 08:31N 28°55' W 015°27'1 2.0
2017-Aug-17 08:00N 28°55' W 015°26'1 1.9
2017-Aug-17 07:31N 28°55' W 015°25'1 1.9
2017-Aug-17 07:00N 28°55' W 015°24'1 1.8
2017-Aug-17 06:31N 28°55' W 015°23'1 1.8
2017-Aug-17 06:00N 28°55' W 015°22'1 1.9
2017-Aug-17 05:31N 28°56' W 015°21'1 1.8
2017-Aug-17 05:00N 28°56' W 015°20'1 1.8
2017-Aug-17 04:30N 28°56' W 015°19'1 1.8
2017-Aug-17 03:45N 28°56' W 015°17'0 1.9
2017-Aug-17 03:30N 28°57' W 015°17'1 1.7
2017-Aug-17 03:00N 28°57' W 015°16'1 1.7
2017-Aug-17 02:29N 28°57' W 015°15'1 1.8
2017-Aug-17 02:00N 28°57' W 015°14'1 1.8
2017-Aug-17 01:30N 28°58' W 015°13'1 1.8
2017-Aug-17 01:00N 28°58' W 015°12'1 2.0
2017-Aug-17 00:30N 28°59' W 015°11'1 1.9
2017-Aug-17 00:00N 28°59' W 015°10'1 1.9
2017-Aug-16 23:30N 28°60' W 015°09'0 0.7
2017-Aug-16 22:52N 28°60' W 015°09'2 5.8
2017-Aug-16 22:28N 28°58' W 015°10'4 8.9
2017-Aug-16 22:00N 28°54' W 015°10'4 8.9
2017-Aug-16 21:30N 28°49' W 015°11'5 9.0
2017-Aug-16 21:00N 28°45' W 015°13'5 9.1
2017-Aug-16 20:31N 28°40' W 015°14'5 9.1
2017-Aug-16 20:01N 28°36' W 015°15'5 9.3
2017-Aug-16 19:30N 28°31' W 015°16'5 9.5
2017-Aug-16 19:01N 28°27' W 015°17'5 9.7
2017-Aug-16 18:30N 28°22' W 015°18'5 9.8
2017-Aug-16 18:00N 28°17' W 015°19'5 9.8
2017-Aug-16 17:30N 28°12' W 015°21'4 8.3
2017-Aug-16 17:00N 28°08' W 015°22'1 1.4
2017-Aug-16 16:30N 28°08' W 015°21'2 3.4
2017-Aug-16 16:00N 28°10' W 015°20'4 7.8
2017-Aug-16 15:31N 28°14' W 015°19'1 1.0
2017-Aug-16 15:00N 28°14' W 015°19'4 7.3
2017-Aug-16 14:30N 28°18' W 015°18'510.4
2017-Aug-16 14:00N 28°23' W 015°17'4 8.1
2017-Aug-16 13:30N 28°27' W 015°16'1 1.4
2017-Aug-16 13:00N 28°27' W 015°16'1 2.4
2017-Aug-16 12:30N 28°28' W 015°17'5 9.1
2017-Aug-16 12:00N 28°30' W 015°22'611.3
2017-Aug-16 11:30N 28°33' W 015°27'611.1
2017-Aug-16 11:00N 28°36' W 015°32'1 1.5
2017-Aug-16 10:30N 28°37' W 015°33'1 1.5
2017-Aug-16 10:00N 28°36' W 015°32'1 1.6
2017-Aug-16 09:30N 28°36' W 015°32'1 1.8
2017-Aug-16 09:00N 28°36' W 015°31'1 1.9
2017-Aug-16 08:30N 28°36' W 015°30'1 1.8
2017-Aug-16 08:00N 28°36' W 015°28'1 1.8
2017-Aug-16 07:30N 28°36' W 015°27'1 2.0
2017-Aug-16 07:00N 28°35' W 015°26'1 2.1
2017-Aug-16 06:31N 28°35' W 015°25'1 1.9
2017-Aug-16 06:00N 28°35' W 015°24'1 2.0
2017-Aug-16 05:30N 28°35' W 015°23'1 2.1
2017-Aug-16 05:00N 28°35' W 015°22'1 2.2
2017-Aug-16 04:31N 28°35' W 015°21'1 2.0
2017-Aug-16 04:00N 28°35' W 015°19'1 1.8
2017-Aug-16 03:31N 28°35' W 015°18'1 1.9
2017-Aug-16 03:00N 28°35' W 015°17'1 2.8
2017-Aug-16 02:30N 28°34' W 015°16'5 9.7
2017-Aug-16 02:01N 28°30' W 015°13'611.8
2017-Aug-16 01:30N 28°25' W 015°09'1 2.8
2017-Aug-16 01:00N 28°24' W 015°08'1 1.5
2017-Aug-16 00:30N 28°25' W 015°08'1 1.6
2017-Aug-16 00:00N 28°26' W 015°08'1 1.6
2017-Aug-15 23:30N 28°26' W 015°08'1 1.6
2017-Aug-15 23:00N 28°27' W 015°08'1 1.5
2017-Aug-15 22:30N 28°28' W 015°08'1 1.5
2017-Aug-15 22:00N 28°29' W 015°08'1 1.6
2017-Aug-15 21:30N 28°29' W 015°07'1 1.6
2017-Aug-15 21:00N 28°30' W 015°07'1 1.5
2017-Aug-15 20:30N 28°31' W 015°07'1 1.6
2017-Aug-15 20:00N 28°32' W 015°07'1 1.6
2017-Aug-15 19:30N 28°33' W 015°07'1 1.6
2017-Aug-15 19:00N 28°33' W 015°08'1 1.6
2017-Aug-15 18:30N 28°34' W 015°08'1 1.6
2017-Aug-15 18:00N 28°35' W 015°08'1 1.5
2017-Aug-15 17:31N 28°36' W 015°08'1 1.5
2017-Aug-15 17:00N 28°36' W 015°09'1 1.4
2017-Aug-15 16:30N 28°37' W 015°09'1 1.3
2017-Aug-15 16:01N 28°38' W 015°09'1 1.2
2017-Aug-15 15:30N 28°38' W 015°09'1 1.0
2017-Aug-15 15:00N 28°39' W 015°09'0 0.8
2017-Aug-15 14:31N 28°39' W 015°09'0 0.7
2017-Aug-15 14:00N 28°39' W 015°09'0 0.7
2017-Aug-15 13:30N 28°40' W 015°10'0 0.6
2017-Aug-15 13:00N 28°40' W 015°10'0 0.4
2017-Aug-15 12:31N 28°40' W 015°10'0 0.2
2017-Aug-15 12:00N 28°40' W 015°10'0 0.3
2017-Aug-15 11:30N 28°40' W 015°10'0 0.3
2017-Aug-15 11:00N 28°41' W 015°10'0 0.3
2017-Aug-15 10:30N 28°41' W 015°10'0 0.3
2017-Aug-15 10:00N 28°41' W 015°10'0 0.4
2017-Aug-15 09:30N 28°41' W 015°10'0 0.6
2017-Aug-15 09:00N 28°41' W 015°09'0 0.6
2017-Aug-15 08:30N 28°41' W 015°09'0 0.7
2017-Aug-15 08:00N 28°41' W 015°09'0 0.6
2017-Aug-15 07:30N 28°42' W 015°08'0 0.2
2017-Aug-15 07:00N 28°42' W 015°08'1 2.3
2017-Aug-15 06:30N 28°41' W 015°10'4 8.9
2017-Aug-15 06:00N 28°41' W 015°15'5 9.2
2017-Aug-15 05:30N 28°40' W 015°20'5 9.2
2017-Aug-15 04:59N 28°39' W 015°25'5 9.2
2017-Aug-15 04:30N 28°38' W 015°30'4 8.9
2017-Aug-15 04:00N 28°38' W 015°35'4 8.5
2017-Aug-15 03:31N 28°36' W 015°39'5 9.3
2017-Aug-15 03:01N 28°32' W 015°43'5 9.3
2017-Aug-15 02:30N 28°29' W 015°46'5 9.3
2017-Aug-15 02:01N 28°25' W 015°50'5 9.1
2017-Aug-15 01:31N 28°22' W 015°53'4 8.9
2017-Aug-15 01:00N 28°18' W 015°56'4 8.8
2017-Aug-15 00:31N 28°15' W 015°60'5 8.8
2017-Aug-14 23:56N 28°11' W 016°03'4 8.6
2017-Aug-14 23:30N 28°08' W 016°06'8 8.7
2017-Aug-14 22:33N 28°02' W 016°12'1 8.8
2017-Aug-14 22:25N 28°01' W 016°13'4 8.7
2017-Aug-14 21:55N 27°58' W 016°16'5 8.8
2017-Aug-14 21:21N 27°54' W 016°19'3 8.9
2017-Aug-14 21:00N 27°51' W 016°21'5 9.2
2017-Aug-14 20:30N 27°47' W 016°24'5 9.4
2017-Aug-14 19:57N 27°43' W 016°27'  
Track history (hours):
 
Tides and Currents Weather Stations Pressure Air Temp Water Temp Dewpoint Dewpoint Depression Visibility Wind Speed Wind Dir Waves Ship Positions

New Champion

Last reported at 2017-Aug-23 06:00 UTC. Time now 2017-Aug-23 06:10 UTC.
Position N 31°00' W 015°44'.

Length 228 m; draft 11.4 m.

Type: Ship (hazmat cat A). MMSI: 537985031.

Date/timePositionNaut miles runAvg speedWind from/ knotsBaromVisibWave heightAir tempDewpointWater temp
2017-Aug-23 06:00N 31°00' W 015°44'612.5
2017-Aug-23 05:30N 30°57' W 015°50'612.4
2017-Aug-23 05:00N 30°54' W 015°56'612.4
2017-Aug-23 04:30N 30°51' W 016°02'612.6
2017-Aug-23 04:00N 30°47' W 016°08'612.5
2017-Aug-23 03:30N 30°44' W 016°15'612.7
2017-Aug-23 03:00N 30°41' W 016°21'612.8
2017-Aug-23 02:30N 30°38' W 016°27'612.5
2017-Aug-23 02:00N 30°34' W 016°34'612.5
2017-Aug-23 01:30N 30°31' W 016°40'612.6
2017-Aug-23 01:00N 30°28' W 016°46'612.5
2017-Aug-23 00:30N 30°25' W 016°52'612.4
2017-Aug-23 00:00N 30°22' W 016°59'612.5
2017-Aug-22 23:30N 30°18' W 017°05'612.7
2017-Aug-22 23:00N 30°15' W 017°11'712.6
2017-Aug-22 22:26N 30°11' W 017°18'512.5
2017-Aug-22 22:00N 30°09' W 017°24'612.5
2017-Aug-22 21:30N 30°06' W 017°30'612.6
2017-Aug-22 21:00N 30°02' W 017°36'611.9
2017-Aug-22 20:30N 29°59' W 017°42'5 9.0
2017-Aug-22 20:00N 29°57' W 017°46'4 9.1
2017-Aug-22 19:30N 29°55' W 017°51'5 9.2
2017-Aug-22 19:00N 29°52' W 017°56'55 5.3
2017-Aug-22 08:32N 29°23' W 018°49'2 1.1
2017-Aug-22 06:55N 29°24' W 018°48'0 1.0
2017-Aug-22 06:30N 29°24' W 018°47'1 1.0
2017-Aug-22 05:57N 29°24' W 018°47'1 1.0
2017-Aug-22 05:20N 29°24' W 018°46'0 1.0
2017-Aug-22 05:00N 29°24' W 018°46'1 1.1
2017-Aug-22 04:27N 29°24' W 018°45'1 1.0
2017-Aug-22 03:53N 29°25' W 018°44'0 1.0
2017-Aug-22 03:30N 29°25' W 018°44'1 1.1
2017-Aug-22 02:59N 29°25' W 018°43'1 1.1
2017-Aug-22 02:30N 29°25' W 018°43'1 1.0
2017-Aug-22 01:56N 29°25' W 018°42'0 1.0
2017-Aug-22 01:30N 29°25' W 018°42'1 1.1
2017-Aug-22 01:00N 29°25' W 018°41'1 1.2
2017-Aug-22 00:30N 29°25' W 018°40'1 1.1
2017-Aug-22 00:00N 29°25' W 018°40'1 1.2
2017-Aug-21 23:30N 29°25' W 018°39'1 1.3
2017-Aug-21 23:00N 29°25' W 018°38'1 1.4
2017-Aug-21 22:30N 29°25' W 018°37'1 1.4
2017-Aug-21 22:00N 29°25' W 018°37'1 1.3
2017-Aug-21 21:30N 29°25' W 018°36'12 1.3
2017-Aug-21 12:40N 29°26' W 018°22'0 1.1
2017-Aug-21 12:23N 29°26' W 018°22'3 1.1
2017-Aug-21 09:41N 29°26' W 018°19'1 1.0
2017-Aug-21 08:44N 29°26' W 018°18'1 1.0
2017-Aug-21 08:10N 29°26' W 018°17'0 1.2
2017-Aug-21 08:00N 29°26' W 018°17'1 1.1
2017-Aug-21 07:27N 29°26' W 018°16'1 1.2
2017-Aug-21 06:20N 29°26' W 018°15'0 1.3
2017-Aug-21 06:00N 29°26' W 018°14'1 1.4
2017-Aug-21 05:30N 29°26' W 018°13'1 1.6
2017-Aug-21 05:00N 29°26' W 018°12'1 1.6
2017-Aug-21 04:30N 29°26' W 018°11'1 1.6
2017-Aug-21 04:00N 29°26' W 018°11'1 1.5
2017-Aug-21 03:27N 29°26' W 018°10'1 1.6
2017-Aug-21 03:00N 29°25' W 018°09'1 1.5
2017-Aug-21 02:30N 29°25' W 018°08'1 1.6
2017-Aug-21 02:01N 29°25' W 018°07'1 1.6
2017-Aug-21 01:29N 29°25' W 018°06'1 1.5
2017-Aug-21 01:00N 29°25' W 018°05'1 1.5
2017-Aug-21 00:20N 29°25' W 018°04'1 1.5
2017-Aug-20 23:57N 29°25' W 018°04'1 1.5
2017-Aug-20 23:14N 29°25' W 018°02'0 1.3
2017-Aug-20 23:00N 29°25' W 018°02'1 1.4
2017-Aug-20 22:07N 29°25' W 018°01'1 1.4
2017-Aug-20 21:13N 29°24' W 017°59'0 1.4
2017-Aug-20 20:58N 29°24' W 017°59'2 1.7
2017-Aug-20 20:00N 29°24' W 017°57'1 1.8
2017-Aug-20 19:25N 29°24' W 017°56'1 1.9
2017-Aug-20 19:00N 29°24' W 017°55'2 1.8
2017-Aug-20 17:52N 29°24' W 017°53'1 1.7
2017-Aug-20 17:29N 29°24' W 017°52'1 1.8
2017-Aug-20 17:00N 29°24' W 017°51'4 1.6
2017-Aug-20 14:14N 29°24' W 017°46'0 1.5
2017-Aug-20 13:54N 29°25' W 017°45'1 1.3
2017-Aug-20 13:30N 29°25' W 017°45'1 1.3
2017-Aug-20 13:00N 29°25' W 017°44'1 1.4
2017-Aug-20 12:19N 29°24' W 017°43'0 1.5
2017-Aug-20 12:00N 29°24' W 017°42'1 1.6
2017-Aug-20 11:28N 29°24' W 017°41'1 1.8
2017-Aug-20 10:59N 29°24' W 017°40'1 1.9
2017-Aug-20 10:28N 29°23' W 017°39'1 1.9
2017-Aug-20 09:59N 29°23' W 017°38'1 1.9
2017-Aug-20 09:27N 29°22' W 017°37'1 1.8
2017-Aug-20 09:00N 29°22' W 017°36'1 2.0
2017-Aug-20 08:30N 29°22' W 017°35'1 2.1
2017-Aug-20 07:59N 29°22' W 017°34'1 2.2
2017-Aug-20 07:30N 29°21' W 017°33'1 2.2
2017-Aug-20 07:00N 29°21' W 017°32'1 2.1
2017-Aug-20 06:30N 29°21' W 017°31'1 2.2
2017-Aug-20 06:01N 29°21' W 017°29'1 2.0
2017-Aug-20 05:25N 29°20' W 017°28'1 2.0
2017-Aug-20 04:51N 29°20' W 017°27'1 1.7
2017-Aug-20 04:28N 29°20' W 017°26'1 1.8
2017-Aug-20 04:00N 29°20' W 017°25'2 1.7
2017-Aug-20 02:53N 29°20' W 017°23'1 1.7
2017-Aug-20 02:00N 29°20' W 017°21'3 1.7
2017-Aug-20 00:08N 29°20' W 017°18'0 1.7
2017-Aug-19 23:53N 29°20' W 017°17'1 1.7
2017-Aug-19 23:28N 29°20' W 017°16'1 1.8
2017-Aug-19 22:38N 29°20' W 017°15'0 1.8
2017-Aug-19 22:25N 29°20' W 017°14'1 1.9
2017-Aug-19 21:57N 29°20' W 017°13'3 1.8
2017-Aug-19 20:11N 29°20' W 017°10'0 1.9
2017-Aug-19 20:00N 29°20' W 017°09'1 1.8
2017-Aug-19 19:30N 29°20' W 017°08'1 1.8
2017-Aug-19 18:54N 29°20' W 017°07'1 1.9
2017-Aug-19 18:30N 29°20' W 017°06'1 1.9
2017-Aug-19 17:59N 29°20' W 017°05'1 1.9
2017-Aug-19 17:15N 29°19' W 017°03'1 2.3
2017-Aug-19 17:00N 29°19' W 017°03'1 2.2
2017-Aug-19 16:29N 29°19' W 017°01'1 2.3
2017-Aug-19 16:00N 29°19' W 017°00'1 2.3
2017-Aug-19 15:30N 29°19' W 016°59'1 2.3
2017-Aug-19 15:00N 29°19' W 016°57'3 2.3
2017-Aug-19 13:37N 29°19' W 016°54'1 7.5
2017-Aug-19 13:29N 29°18' W 016°54'4 8.5
2017-Aug-19 12:59N 29°14' W 016°56'4 8.6
2017-Aug-19 12:30N 29°10' W 016°58'11 7.1
2017-Aug-19 11:01N 29°00' W 017°02'1 1.7
2017-Aug-19 10:09N 29°01' W 017°00'0 1.7
2017-Aug-19 10:00N 29°01' W 017°00'6 1.6
2017-Aug-19 06:25N 29°03' W 016°54'1 2.0
2017-Aug-19 06:00N 29°03' W 016°53'1 1.8
2017-Aug-19 05:30N 29°04' W 016°52'1 1.6
2017-Aug-19 05:00N 29°04' W 016°51'1 1.6
2017-Aug-19 04:28N 29°04' W 016°50'1 1.6
2017-Aug-19 04:00N 29°04' W 016°50'1 1.8
2017-Aug-19 03:30N 29°05' W 016°49'1 1.7
2017-Aug-19 03:00N 29°05' W 016°48'1 1.7
2017-Aug-19 02:30N 29°05' W 016°47'1 1.7
2017-Aug-19 02:00N 29°05' W 016°46'1 1.8
2017-Aug-19 01:31N 29°06' W 016°45'1 2.0
2017-Aug-19 01:00N 29°06' W 016°44'1 2.1
2017-Aug-19 00:31N 29°06' W 016°42'1 2.1
2017-Aug-19 00:01N 29°06' W 016°41'1 2.1
2017-Aug-18 23:30N 29°06' W 016°40'1 2.1
2017-Aug-18 22:59N 29°06' W 016°39'1 2.0
2017-Aug-18 22:30N 29°07' W 016°38'1 1.8
2017-Aug-18 22:00N 29°07' W 016°37'1 2.0
2017-Aug-18 21:30N 29°07' W 016°36'1 2.0
2017-Aug-18 20:47N 29°07' W 016°34'1 2.0
2017-Aug-18 20:28N 29°07' W 016°33'1 2.0
2017-Aug-18 20:00N 29°08' W 016°32'1 2.0
2017-Aug-18 19:30N 29°08' W 016°31'1 2.0
2017-Aug-18 18:58N 29°08' W 016°30'1 2.1
2017-Aug-18 18:30N 29°08' W 016°29'1 2.2
2017-Aug-18 18:00N 29°08' W 016°28'1 2.2
2017-Aug-18 17:30N 29°09' W 016°26'1 2.2
2017-Aug-18 17:00N 29°09' W 016°25'1 2.1
2017-Aug-18 16:30N 29°09' W 016°24'1 2.1
2017-Aug-18 15:59N 29°09' W 016°23'1 2.2
2017-Aug-18 15:29N 29°09' W 016°21'1 2.3
2017-Aug-18 14:59N 29°09' W 016°20'2 2.3
2017-Aug-18 13:59N 29°09' W 016°18'1 2.3
2017-Aug-18 13:29N 29°09' W 016°16'1 2.2
2017-Aug-18 12:58N 29°10' W 016°15'1 1.6
2017-Aug-18 12:31N 29°11' W 016°15'1 1.5
2017-Aug-18 11:59N 29°11' W 016°15'1 2.7
2017-Aug-18 11:29N 29°10' W 016°15'4 8.6
2017-Aug-18 10:59N 29°06' W 016°14'4 9.3
2017-Aug-18 10:30N 29°01' W 016°14'5 9.2
2017-Aug-18 10:01N 28°57' W 016°14'4 7.7
2017-Aug-18 09:30N 28°53' W 016°13'1 1.5
2017-Aug-18 09:00N 28°53' W 016°12'1 1.5
2017-Aug-18 08:30N 28°53' W 016°12'1 1.6
2017-Aug-18 08:00N 28°53' W 016°11'1 1.6
2017-Aug-18 07:30N 28°54' W 016°10'1 1.6
2017-Aug-18 07:00N 28°54' W 016°09'1 1.7
2017-Aug-18 06:30N 28°54' W 016°08'1 1.8
2017-Aug-18 06:00N 28°54' W 016°07'1 1.9
2017-Aug-18 05:30N 28°54' W 016°06'1 1.8
2017-Aug-18 05:00N 28°54' W 016°05'1 2.0
2017-Aug-18 04:30N 28°55' W 016°04'1 1.9
2017-Aug-18 04:00N 28°55' W 016°03'1 2.0
2017-Aug-18 03:30N 28°55' W 016°02'1 1.9
2017-Aug-18 03:00N 28°55' W 016°01'1 1.9
2017-Aug-18 02:30N 28°55' W 015°60'1 1.7
2017-Aug-18 02:00N 28°55' W 015°59'1 1.6
2017-Aug-18 01:30N 28°55' W 015°58'1 1.5
2017-Aug-18 01:00N 28°56' W 015°57'1 1.5
2017-Aug-18 00:30N 28°56' W 015°56'1 1.4
2017-Aug-18 00:00N 28°56' W 015°55'1 1.4
2017-Aug-17 23:30N 28°56' W 015°54'1 1.4
2017-Aug-17 23:01N 28°56' W 015°54'1 1.5
2017-Aug-17 22:31N 28°56' W 015°53'1 1.6
2017-Aug-17 22:01N 28°56' W 015°52'1 1.5
2017-Aug-17 21:31N 28°56' W 015°51'1 1.5
2017-Aug-17 21:01N 28°56' W 015°50'1 1.6
2017-Aug-17 20:31N 28°56' W 015°49'1 1.6
2017-Aug-17 20:00N 28°56' W 015°48'1 1.7
2017-Aug-17 19:30N 28°56' W 015°48'1 1.5
2017-Aug-17 19:00N 28°57' W 015°47'1 1.4
2017-Aug-17 18:30N 28°57' W 015°46'1 1.4
2017-Aug-17 18:00N 28°57' W 015°45'1 1.3
2017-Aug-17 17:30N 28°57' W 015°44'1 1.3
2017-Aug-17 17:00N 28°57' W 015°44'1 1.4
2017-Aug-17 16:31N 28°57' W 015°43'1 1.4
2017-Aug-17 16:00N 28°57' W 015°42'1 1.5
2017-Aug-17 15:30N 28°56' W 015°41'1 1.6
2017-Aug-17 15:00N 28°56' W 015°40'1 1.6
2017-Aug-17 14:30N 28°56' W 015°39'1 1.6
2017-Aug-17 14:00N 28°56' W 015°38'1 1.7
2017-Aug-17 13:30N 28°56' W 015°37'1 1.8
2017-Aug-17 12:59N 28°56' W 015°36'1 1.8
2017-Aug-17 12:30N 28°56' W 015°35'1 1.8
2017-Aug-17 12:00N 28°56' W 015°34'1 1.8
2017-Aug-17 11:31N 28°55' W 015°33'1 1.8
2017-Aug-17 11:00N 28°55' W 015°32'1 1.7
2017-Aug-17 10:30N 28°55' W 015°31'1 1.7
2017-Aug-17 10:00N 28°55' W 015°30'1 1.8
2017-Aug-17 09:30N 28°55' W 015°29'1 1.9
2017-Aug-17 09:00N 28°55' W 015°28'1 2.0
2017-Aug-17 08:31N 28°55' W 015°27'1 2.0
2017-Aug-17 08:00N 28°55' W 015°26'1 1.9
2017-Aug-17 07:31N 28°55' W 015°25'1 1.9
2017-Aug-17 07:00N 28°55' W 015°24'1 1.8
2017-Aug-17 06:31N 28°55' W 015°23'1 1.8
2017-Aug-17 06:00N 28°55' W 015°22'1 1.9
2017-Aug-17 05:31N 28°56' W 015°21'1 1.8
2017-Aug-17 05:00N 28°56' W 015°20'1 1.8
2017-Aug-17 04:30N 28°56' W 015°19'1 1.8
2017-Aug-17 03:45N 28°56' W 015°17'0 1.9
2017-Aug-17 03:30N 28°57' W 015°17'1 1.7
2017-Aug-17 03:00N 28°57' W 015°16'1 1.7
2017-Aug-17 02:29N 28°57' W 015°15'1 1.8
2017-Aug-17 02:00N 28°57' W 015°14'1 1.8
2017-Aug-17 01:30N 28°58' W 015°13'1 1.8
2017-Aug-17 01:00N 28°58' W 015°12'1 2.0
2017-Aug-17 00:30N 28°59' W 015°11'1 1.9
2017-Aug-17 00:00N 28°59' W 015°10'1 1.9
2017-Aug-16 23:30N 28°60' W 015°09'0 0.7
2017-Aug-16 22:52N 28°60' W 015°09'2 5.8
2017-Aug-16 22:28N 28°58' W 015°10'4 8.9
2017-Aug-16 22:00N 28°54' W 015°10'4 8.9
2017-Aug-16 21:30N 28°49' W 015°11'5 9.0
2017-Aug-16 21:00N 28°45' W 015°13'5 9.1
2017-Aug-16 20:31N 28°40' W 015°14'5 9.1
2017-Aug-16 20:01N 28°36' W 015°15'5 9.3
2017-Aug-16 19:30N 28°31' W 015°16'5 9.5
2017-Aug-16 19:01N 28°27' W 015°17'5 9.7
2017-Aug-16 18:30N 28°22' W 015°18'5 9.8
2017-Aug-16 18:00N 28°17' W 015°19'5 9.8
2017-Aug-16 17:30N 28°12' W 015°21'4 8.3
2017-Aug-16 17:00N 28°08' W 015°22'1 1.4
2017-Aug-16 16:30N 28°08' W 015°21'2 3.4
2017-Aug-16 16:00N 28°10' W 015°20'4 7.8
2017-Aug-16 15:31N 28°14' W 015°19'1 1.0
2017-Aug-16 15:00N 28°14' W 015°19'4 7.3
2017-Aug-16 14:30N 28°18' W 015°18'510.4
2017-Aug-16 14:00N 28°23' W 015°17'4 8.1
2017-Aug-16 13:30N 28°27' W 015°16'1 1.4
2017-Aug-16 13:00N 28°27' W 015°16'1 2.4
2017-Aug-16 12:30N 28°28' W 015°17'5 9.1
2017-Aug-16 12:00N 28°30' W 015°22'611.3
2017-Aug-16 11:30N 28°33' W 015°27'611.1
2017-Aug-16 11:00N 28°36' W 015°32'1 1.5
2017-Aug-16 10:30N 28°37' W 015°33'1 1.5
2017-Aug-16 10:00N 28°36' W 015°32'1 1.6
2017-Aug-16 09:30N 28°36' W 015°32'1 1.8
2017-Aug-16 09:00N 28°36' W 015°31'1 1.9
2017-Aug-16 08:30N 28°36' W 015°30'1 1.8
2017-Aug-16 08:00N 28°36' W 015°28'1 1.8
2017-Aug-16 07:30N 28°36' W 015°27'1 2.0
2017-Aug-16 07:00N 28°35' W 015°26'1 2.1
2017-Aug-16 06:31N 28°35' W 015°25'1 1.9
2017-Aug-16 06:00N 28°35' W 015°24'1 2.0
2017-Aug-16 05:30N 28°35' W 015°23'1 2.1
2017-Aug-16 05:00N 28°35' W 015°22'1 2.2
2017-Aug-16 04:31N 28°35' W 015°21'1 2.0
2017-Aug-16 04:00N 28°35' W 015°19'1 1.8
2017-Aug-16 03:31N 28°35' W 015°18'1 1.9
2017-Aug-16 03:00N 28°35' W 015°17'1 2.8
2017-Aug-16 02:30N 28°34' W 015°16'5 9.7
2017-Aug-16 02:01N 28°30' W 015°13'611.8
2017-Aug-16 01:30N 28°25' W 015°09'1 2.8
2017-Aug-16 01:00N 28°24' W 015°08'1 1.5
2017-Aug-16 00:30N 28°25' W 015°08'1 1.6
2017-Aug-16 00:00N 28°26' W 015°08'1 1.6
2017-Aug-15 23:30N 28°26' W 015°08'1 1.6
2017-Aug-15 23:00N 28°27' W 015°08'1 1.5
2017-Aug-15 22:30N 28°28' W 015°08'1 1.5
2017-Aug-15 22:00N 28°29' W 015°08'1 1.6
2017-Aug-15 21:30N 28°29' W 015°07'1 1.6
2017-Aug-15 21:00N 28°30' W 015°07'1 1.5
2017-Aug-15 20:30N 28°31' W 015°07'1 1.6
2017-Aug-15 20:00N 28°32' W 015°07'1 1.6
2017-Aug-15 19:30N 28°33' W 015°07'1 1.6
2017-Aug-15 19:00N 28°33' W 015°08'1 1.6
2017-Aug-15 18:30N 28°34' W 015°08'1 1.6
2017-Aug-15 18:00N 28°35' W 015°08'1 1.5
2017-Aug-15 17:31N 28°36' W 015°08'1 1.5
2017-Aug-15 17:00N 28°36' W 015°09'1 1.4
2017-Aug-15 16:30N 28°37' W 015°09'1 1.3
2017-Aug-15 16:01N 28°38' W 015°09'1 1.2
2017-Aug-15 15:30N 28°38' W 015°09'1 1.0
2017-Aug-15 15:00N 28°39' W 015°09'0 0.8
2017-Aug-15 14:31N 28°39' W 015°09'0 0.7
2017-Aug-15 14:00N 28°39' W 015°09'0 0.7
2017-Aug-15 13:30N 28°40' W 015°10'0 0.6
2017-Aug-15 13:00N 28°40' W 015°10'0 0.4
2017-Aug-15 12:31N 28°40' W 015°10'0 0.2
2017-Aug-15 12:00N 28°40' W 015°10'0 0.3
2017-Aug-15 11:30N 28°40' W 015°10'0 0.3
2017-Aug-15 11:00N 28°41' W 015°10'0 0.3
2017-Aug-15 10:30N 28°41' W 015°10'0 0.3
2017-Aug-15 10:00N 28°41' W 015°10'0 0.4
2017-Aug-15 09:30N 28°41' W 015°10'0 0.6
2017-Aug-15 09:00N 28°41' W 015°09'0 0.6
2017-Aug-15 08:30N 28°41' W 015°09'0 0.7
2017-Aug-15 08:00N 28°41' W 015°09'0 0.6
2017-Aug-15 07:30N 28°42' W 015°08'0 0.2
2017-Aug-15 07:00N 28°42' W 015°08'1 2.3
2017-Aug-15 06:30N 28°41' W 015°10'4 8.9
2017-Aug-15 06:00N 28°41' W 015°15'5 9.2
2017-Aug-15 05:30N 28°40' W 015°20'5 9.2
2017-Aug-15 04:59N 28°39' W 015°25'5 9.2
2017-Aug-15 04:30N 28°38' W 015°30'4 8.9
2017-Aug-15 04:00N 28°38' W 015°35'4 8.5
2017-Aug-15 03:31N 28°36' W 015°39'5 9.3
2017-Aug-15 03:01N 28°32' W 015°43'5 9.3
2017-Aug-15 02:30N 28°29' W 015°46'5 9.3
2017-Aug-15 02:01N 28°25' W 015°50'5 9.1
2017-Aug-15 01:31N 28°22' W 015°53'4 8.9
2017-Aug-15 01:00N 28°18' W 015°56'4 8.8
2017-Aug-15 00:31N 28°15' W 015°60'5 8.8
2017-Aug-14 23:56N 28°11' W 016°03'4 8.6
2017-Aug-14 23:30N 28°08' W 016°06'8 8.7
2017-Aug-14 22:33N 28°02' W 016°12'1 8.8
2017-Aug-14 22:25N 28°01' W 016°13'4 8.7
2017-Aug-14 21:55N 27°58' W 016°16'5 8.8
2017-Aug-14 21:21N 27°54' W 016°19'3 8.9
2017-Aug-14 21:00N 27°51' W 016°21'5 9.2
2017-Aug-14 20:30N 27°47' W 016°24'5 9.4
2017-Aug-14 19:57N 27°43' W 016°27'  

Dump ship's entire track history